Terminal Aerodrome Forecast
Issued by NWS

Home | Current Version | Previous Version | Text Only | Print | Product List | Glossary On
Versions: 1 2 3 4 5 6 7 8 9 10 11 12 13 14 15 16
000
FTUS43 KDTX 310824 AAA
TAFDET
TAF AMD
KDET 310824Z 3108/0106 09007KT 4SM -RASN BR OVC006
     FM311400 04013KT P6SM BKN015 OVC025
     FM311700 36007KT P6SM SCT025 BKN060
     FM010200 10006KT 6SM HZ BKN035 OVC050=

USA.gov is the U.S. government's official web portal to all federal, state and local government web resources and services.